createdAt,value
2018-06-15T00:00:12.848Z,82.50
2018-06-15T00:02:41.220Z,82.70
2018-06-15T00:05:09.601Z,82.60
2018-06-15T00:07:37.931Z,82.60
2018-06-15T00:10:06.352Z,82.70
2018-06-15T00:15:02.838Z,82.80
2018-06-15T00:17:31.173Z,82.90
2018-06-15T00:19:59.563Z,82.90
2018-06-15T00:22:27.912Z,83.00
2018-06-15T00:24:56.271Z,83.10
2018-06-15T00:27:24.614Z,83.00
2018-06-15T00:29:52.984Z,83.10
2018-06-15T00:32:21.336Z,83.20
2018-06-15T00:34:49.691Z,83.40
2018-06-15T00:37:18.037Z,83.50
2018-06-15T00:39:46.407Z,83.50
2018-06-15T00:42:14.739Z,83.50
2018-06-15T00:44:43.655Z,83.60
2018-06-15T00:47:11.999Z,83.60
2018-06-15T00:49:40.407Z,84.00
2018-06-15T00:54:36.874Z,84.80
2018-06-15T00:57:16.645Z,84.80
2018-06-15T00:59:45.015Z,84.50
2018-06-15T01:02:13.368Z,85.40
2018-06-15T01:09:37.911Z,84.80
2018-06-15T01:12:06.541Z,84.80
2018-06-15T01:14:35.158Z,84.80
2018-06-15T01:17:03.549Z,84.90
2018-06-15T01:19:31.900Z,85.30
2018-06-15T01:22:00.336Z,84.90
2018-06-15T01:24:28.682Z,84.90
2018-06-15T01:29:25.123Z,85.00
2018-06-15T01:31:53.488Z,85.20
2018-06-15T01:34:21.832Z,85.20
2018-06-15T01:36:50.221Z,85.10
2018-06-15T01:39:18.566Z,85.20
2018-06-15T01:41:46.923Z,85.20
2018-06-15T01:49:11.500Z,85.10
2018-06-15T01:51:39.869Z,84.90
2018-06-15T01:54:08.208Z,84.90
2018-06-15T01:59:04.660Z,85.10
2018-06-15T02:01:33.034Z,85.00
2018-06-15T02:04:01.369Z,85.40
2018-06-15T02:06:29.747Z,84.90
2018-06-15T02:08:58.158Z,85.80
2018-06-15T02:11:27.719Z,85.10
2018-06-15T02:13:56.132Z,85.20
2018-06-15T02:16:24.500Z,85.20
2018-06-15T02:18:52.835Z,85.20
2018-06-15T02:21:21.206Z,85.40
2018-06-15T02:23:49.631Z,85.30
2018-06-15T02:26:18.022Z,85.40
2018-06-15T02:28:46.363Z,85.40
2018-06-15T02:33:42.849Z,86.30
2018-06-15T02:36:11.225Z,85.50
2018-06-15T02:38:39.571Z,85.50
2018-06-15T02:43:36.016Z,85.80
2018-06-15T02:48:32.444Z,86.00
2018-06-15T02:51:00.813Z,86.00
2018-06-15T02:53:29.164Z,86.20
2018-06-15T02:55:57.532Z,86.20
2018-06-15T02:58:25.906Z,86.10
2018-06-15T03:00:54.243Z,86.10
2018-06-15T03:03:22.608Z,86.00
2018-06-15T03:05:50.962Z,85.90
2018-06-15T03:08:19.329Z,85.80
2018-06-15T03:10:47.699Z,85.80
2018-06-15T03:13:16.092Z,85.60
2018-06-15T03:15:44.476Z,85.40
2018-06-15T03:18:12.854Z,85.30
2018-06-15T03:20:41.198Z,85.00
2018-06-15T03:23:09.567Z,84.90
2018-06-15T03:25:37.897Z,85.50
2018-06-15T03:28:06.363Z,85.10
2018-06-15T03:30:34.711Z,85.40
2018-06-15T03:33:03.088Z,85.70
2018-06-15T03:35:31.428Z,85.70
2018-06-15T03:37:59.792Z,85.90
2018-06-15T03:40:28.139Z,86.10
2018-06-15T03:42:56.519Z,86.30
2018-06-15T03:45:24.897Z,86.20
2018-06-15T03:47:53.278Z,85.90
2018-06-15T03:50:21.639Z,85.80
2018-06-15T03:52:50.020Z,85.30
2018-06-15T03:55:18.355Z,85.60
2018-06-15T03:57:46.783Z,85.60
2018-06-15T04:00:15.219Z,85.60
2018-06-15T04:02:43.603Z,85.60
2018-06-15T04:05:11.948Z,85.50
2018-06-15T04:10:08.507Z,85.90
2018-06-15T04:15:04.963Z,86.40
2018-06-15T04:20:01.400Z,86.40
2018-06-15T04:22:29.755Z,86.40
2018-06-15T04:24:58.135Z,86.70
2018-06-15T04:27:26.503Z,86.50
2018-06-15T04:29:54.847Z,86.60
2018-06-15T04:32:23.215Z,86.50
2018-06-15T04:34:51.556Z,86.40
2018-06-15T04:37:19.942Z,86.20
2018-06-15T04:39:48.280Z,86.20
2018-06-15T04:42:16.652Z,86.30
2018-06-15T04:44:44.979Z,86.40
2018-06-15T04:47:13.376Z,86.40
2018-06-15T04:52:09.824Z,86.50
2018-06-15T04:54:38.188Z,86.50
2018-06-15T04:57:06.543Z,86.30
2018-06-15T04:59:34.910Z,86.00
2018-06-15T05:02:03.256Z,85.90
2018-06-15T05:07:00.480Z,85.60
2018-06-15T05:09:28.920Z,85.60
2018-06-15T05:11:57.300Z,85.80
2018-06-15T05:14:25.688Z,85.60
2018-06-15T05:16:54.775Z,85.60
2018-06-15T05:19:23.180Z,85.50
2018-06-15T05:21:51.602Z,85.50
2018-06-15T05:24:20.000Z,85.30
2018-06-15T05:29:16.476Z,85.10
2018-06-15T05:31:44.825Z,84.90
2018-06-15T05:36:41.301Z,84.30
2018-06-15T05:39:10.812Z,83.60
2018-06-15T05:41:39.467Z,83.50
2018-06-15T05:46:36.332Z,82.20
2018-06-15T05:51:32.960Z,81.50
2018-06-15T05:54:01.349Z,81.80
2018-06-15T05:56:29.687Z,81.50
2018-06-15T05:58:58.051Z,81.10
2018-06-15T06:01:26.396Z,80.80
2018-06-15T06:03:54.820Z,80.70
2018-06-15T06:06:23.230Z,81.50
2018-06-15T06:08:51.634Z,80.80
2018-06-15T06:11:19.976Z,80.80
2018-06-15T06:13:48.339Z,80.70
2018-06-15T06:16:16.681Z,80.70
2018-06-15T06:18:45.058Z,81.00
2018-06-15T06:26:09.992Z,80.30
2018-06-15T06:31:06.877Z,78.70
2018-06-15T06:33:35.251Z,78.10
2018-06-15T06:36:03.635Z,78.40
2018-06-15T06:38:32.012Z,78.40
2018-06-15T06:41:00.404Z,77.70
2018-06-15T06:43:28.755Z,77.00
2018-06-15T06:45:57.146Z,76.80
2018-06-15T06:48:25.487Z,76.70
2018-06-15T06:50:53.915Z,76.80
2018-06-15T06:53:22.230Z,76.10
2018-06-15T06:55:50.624Z,75.70
2018-06-15T06:58:18.971Z,75.40
2018-06-15T07:00:47.349Z,75.10
2018-06-15T07:03:15.688Z,75.10
2018-06-15T07:05:44.068Z,74.80
2018-06-15T07:13:08.640Z,75.20
2018-06-15T07:15:37.016Z,75.00
2018-06-15T07:18:05.431Z,74.70
2018-06-15T07:20:33.809Z,74.30
2018-06-15T07:23:02.156Z,73.80
2018-06-15T07:25:30.523Z,73.60
2018-06-15T07:27:58.876Z,73.50
2018-06-15T07:30:27.253Z,73.40
2018-06-15T07:32:55.608Z,73.10
2018-06-15T07:35:23.975Z,73.30
2018-06-15T07:37:52.436Z,73.30
2018-06-15T07:40:20.811Z,72.90
2018-06-15T07:42:49.199Z,72.80
2018-06-15T07:45:17.599Z,72.90
2018-06-15T07:47:45.946Z,72.50
2018-06-15T07:50:14.316Z,72.20
2018-06-15T07:52:42.669Z,72.80
2018-06-15T07:57:39.110Z,72.50
2018-06-15T08:00:07.484Z,71.90
2018-06-15T08:02:35.839Z,72.20
2018-06-15T08:05:04.224Z,71.70
2018-06-15T08:07:32.576Z,71.60
2018-06-15T08:10:00.991Z,71.00
2018-06-15T08:12:29.348Z,70.60
2018-06-15T08:14:57.717Z,70.40
2018-06-15T08:17:26.059Z,70.50
2018-06-15T08:22:22.512Z,70.40
2018-06-15T08:24:50.891Z,70.20
2018-06-15T08:29:47.323Z,68.70
2018-06-15T08:32:15.665Z,67.50
2018-06-15T08:34:44.052Z,67.30
2018-06-15T08:37:12.397Z,66.60
2018-06-15T08:39:40.793Z,66.20
2018-06-15T08:42:09.172Z,65.60
2018-06-15T08:44:37.520Z,65.90
2018-06-15T08:49:33.997Z,66.30
2018-06-15T08:52:02.420Z,66.10
2018-06-15T08:54:30.761Z,65.60
2018-06-15T08:56:59.191Z,65.10
2018-06-15T08:59:27.529Z,64.50
2018-06-15T09:01:55.949Z,64.30
2018-06-15T09:04:24.321Z,64.60
2018-06-15T09:06:52.692Z,63.60
2018-06-15T09:09:21.060Z,63.00
2018-06-15T09:11:49.432Z,63.30
2018-06-15T09:14:17.792Z,63.10
2018-06-15T09:16:46.155Z,62.40
2018-06-15T09:19:14.550Z,62.20
2018-06-15T09:21:42.915Z,62.40
2018-06-15T09:24:11.252Z,61.60
2018-06-15T09:26:39.620Z,61.60
2018-06-15T09:29:07.956Z,61.00
2018-06-15T09:31:36.385Z,60.70
2018-06-15T09:34:04.716Z,60.00
2018-06-15T09:36:33.071Z,60.20
2018-06-15T09:41:29.571Z,59.90
2018-06-15T09:43:57.920Z,59.70
2018-06-15T09:46:26.417Z,59.50
2018-06-15T09:48:54.672Z,59.10
2018-06-15T09:53:51.112Z,58.50
2018-06-15T09:56:19.494Z,57.90
2018-06-15T10:01:20.297Z,58.60
2018-06-15T10:03:48.719Z,58.30
2018-06-15T10:06:17.125Z,58.10
2018-06-15T10:08:45.481Z,57.70
2018-06-15T10:11:13.884Z,57.40
2018-06-15T10:13:42.229Z,56.80
2018-06-15T10:16:10.584Z,56.20
2018-06-15T10:18:38.935Z,55.70
2018-06-15T10:21:07.279Z,55.80
2018-06-15T10:23:35.640Z,55.90
2018-06-15T10:26:03.996Z,56.10
2018-06-15T10:28:32.360Z,55.50
2018-06-15T10:31:00.700Z,55.70
2018-06-15T10:35:57.160Z,54.60
2018-06-15T10:38:25.507Z,54.50
2018-06-15T10:40:53.869Z,54.00
2018-06-15T10:43:22.232Z,53.10
2018-06-15T10:45:50.556Z,53.00
2018-06-15T10:48:18.983Z,52.50
2018-06-15T10:50:47.328Z,51.90
2018-06-15T10:55:43.762Z,52.40
2018-06-15T10:58:12.131Z,52.60
2018-06-15T11:00:40.484Z,52.50
2018-06-15T11:03:08.864Z,52.30
2018-06-15T11:05:37.215Z,52.00
2018-06-15T11:08:05.605Z,52.00
2018-06-15T11:10:33.967Z,52.30
2018-06-15T11:13:02.321Z,52.40
2018-06-15T11:15:30.699Z,52.50
2018-06-15T11:17:59.052Z,52.90
2018-06-15T11:20:27.409Z,52.90
2018-06-15T11:22:59.068Z,53.50
2018-06-15T11:25:27.868Z,52.70
2018-06-15T11:27:56.260Z,52.40
2018-06-15T11:30:24.593Z,52.40
2018-06-15T11:32:52.960Z,51.60
2018-06-15T11:37:49.401Z,50.20
2018-06-15T11:40:17.730Z,50.00
2018-06-15T11:42:46.235Z,49.90
2018-06-15T11:45:14.588Z,49.60
2018-06-15T11:47:42.953Z,49.20
2018-06-15T11:50:12.657Z,48.70
2018-06-15T11:52:41.069Z,47.80
2018-06-15T11:55:09.989Z,48.30
2018-06-15T11:57:40.923Z,47.50
2018-06-15T12:00:09.372Z,46.40
2018-06-15T12:02:37.754Z,46.00
2018-06-15T12:05:06.160Z,45.40
2018-06-15T12:07:34.512Z,45.10
2018-06-15T12:10:04.563Z,44.60
2018-06-15T12:15:03.221Z,45.10
2018-06-15T12:17:32.053Z,45.50
2018-06-15T12:20:00.497Z,45.60
2018-06-15T12:22:28.840Z,45.40
2018-06-15T12:24:57.200Z,45.20
2018-06-15T12:27:25.536Z,44.60
2018-06-15T12:29:53.918Z,43.70
2018-06-15T12:32:22.553Z,42.50
2018-06-15T12:34:50.912Z,41.30
2018-06-15T12:37:19.283Z,41.10
2018-06-15T12:39:47.639Z,40.60
2018-06-15T12:42:15.996Z,39.70
2018-06-15T12:47:12.445Z,38.60
2018-06-15T12:52:08.911Z,37.40
2018-06-15T12:54:37.607Z,37.40
2018-06-15T12:57:06.562Z,37.90
2018-06-15T12:59:34.904Z,38.50
2018-06-15T13:02:03.268Z,38.80
2018-06-15T13:04:31.645Z,39.10
2018-06-15T13:06:59.984Z,39.50
2018-06-15T13:09:28.374Z,39.80
2018-06-15T13:16:52.867Z,40.20
2018-06-15T13:19:21.241Z,40.20
2018-06-15T13:21:49.585Z,40.30
2018-06-15T13:24:17.951Z,40.20
2018-06-15T13:26:46.296Z,40.00
2018-06-15T13:29:14.657Z,39.70
2018-06-15T13:31:43.052Z,39.50
2018-06-15T13:34:11.422Z,39.00
2018-06-15T13:36:39.751Z,38.40
2018-06-15T13:39:09.976Z,38.10
2018-06-15T13:41:38.311Z,37.90
2018-06-15T13:44:06.674Z,38.00
2018-06-15T13:46:35.187Z,38.40
2018-06-15T13:51:31.608Z,39.00
2018-06-15T13:53:59.986Z,39.10
2018-06-15T13:56:28.348Z,39.60
2018-06-15T13:58:57.016Z,39.60
2018-06-15T14:01:25.393Z,39.40
2018-06-15T14:03:53.732Z,39.00
2018-06-15T14:06:22.101Z,38.20
2018-06-15T14:08:50.432Z,37.50
2018-06-15T14:11:18.843Z,37.30
2018-06-15T14:13:47.184Z,36.60
2018-06-15T14:16:15.546Z,36.20
2018-06-15T14:21:11.988Z,35.40
2018-06-15T14:26:08.445Z,35.60
2018-06-15T14:28:36.804Z,35.50
2018-06-15T14:31:05.169Z,35.70
2018-06-15T14:33:33.515Z,35.40
2018-06-15T14:36:01.881Z,35.00
2018-06-15T14:38:30.224Z,35.00
2018-06-15T14:40:58.588Z,35.00
2018-06-15T14:43:26.920Z,34.40
2018-06-15T14:45:55.339Z,34.00
2018-06-15T14:48:23.667Z,33.60
2018-06-15T14:53:20.092Z,34.20
2018-06-15T14:55:48.451Z,35.00
2018-06-15T14:58:16.995Z,35.20
2018-06-15T15:00:45.395Z,35.70
2018-06-15T15:03:13.804Z,36.30
2018-06-15T15:05:42.199Z,37.20
2018-06-15T15:08:10.529Z,38.20
2018-06-15T15:10:38.930Z,38.80
2018-06-15T15:13:07.329Z,38.30
2018-06-15T15:15:35.691Z,37.70
2018-06-15T15:18:04.508Z,36.90
2018-06-15T15:20:33.436Z,35.80
2018-06-15T15:23:01.791Z,35.40
2018-06-15T15:25:30.184Z,35.00
2018-06-15T15:32:54.679Z,34.60
2018-06-15T15:35:23.043Z,34.80
2018-06-15T15:37:51.472Z,35.20
2018-06-15T15:40:19.875Z,34.80
2018-06-15T15:42:48.197Z,34.50
2018-06-15T15:45:16.605Z,34.30
2018-06-15T15:47:44.940Z,34.50
2018-06-15T15:50:13.273Z,35.60
2018-06-15T15:52:41.648Z,36.50
2018-06-15T15:55:10.053Z,37.10
2018-06-15T15:57:38.422Z,37.40
2018-06-15T16:00:06.777Z,37.50
2018-06-15T16:05:03.271Z,37.20
2018-06-15T16:07:31.642Z,37.00
2018-06-15T16:10:00.009Z,37.00
2018-06-15T16:12:28.411Z,36.70
2018-06-15T16:14:56.754Z,36.20
2018-06-15T16:19:53.188Z,35.30
2018-06-15T16:24:49.612Z,34.00
2018-06-15T16:27:18.017Z,33.70
2018-06-15T16:29:46.337Z,33.50
2018-06-15T16:32:14.699Z,33.70
2018-06-15T16:34:43.032Z,34.00
2018-06-15T16:37:11.407Z,34.40
2018-06-15T16:39:39.727Z,34.90
2018-06-15T16:42:08.083Z,35.20
2018-06-15T16:44:36.438Z,35.50
2018-06-15T16:47:04.824Z,35.80
2018-06-15T16:49:33.164Z,36.30
2018-06-15T16:52:01.528Z,36.50
2018-06-15T16:54:29.880Z,36.60
2018-06-15T16:56:58.244Z,36.90
2018-06-15T16:59:26.575Z,37.10
2018-06-15T17:01:54.944Z,37.20
2018-06-15T17:04:23.292Z,37.00
2018-06-15T17:06:51.675Z,36.90
2018-06-15T17:09:20.055Z,36.90
2018-06-15T17:11:48.432Z,37.00
2018-06-15T17:14:16.764Z,38.00
2018-06-15T17:16:45.138Z,37.40
2018-06-15T17:19:13.468Z,37.20
2018-06-15T17:21:41.831Z,37.20
2018-06-15T17:24:10.176Z,37.30
2018-06-15T17:26:38.544Z,37.50
2018-06-15T17:29:06.889Z,38.00
2018-06-15T17:31:35.256Z,37.90
2018-06-15T17:34:03.604Z,37.90
2018-06-15T17:36:31.991Z,38.00
2018-06-15T17:39:00.344Z,38.30
2018-06-15T17:41:28.705Z,38.60
2018-06-15T17:43:57.023Z,39.20
2018-06-15T17:46:25.440Z,39.50
2018-06-15T17:48:53.832Z,40.00
2018-06-15T17:51:22.172Z,40.10
2018-06-15T17:53:50.531Z,40.10
2018-06-15T17:56:18.868Z,40.30
2018-06-15T17:58:47.251Z,40.40
2018-06-15T18:01:15.579Z,40.80
2018-06-15T18:03:44.052Z,41.10
2018-06-15T18:06:12.389Z,41.50
2018-06-15T18:11:08.848Z,42.00
2018-06-15T18:13:37.204Z,42.50
2018-06-15T18:16:05.559Z,42.80
2018-06-15T18:18:33.924Z,43.10
2018-06-15T18:21:02.285Z,43.30
2018-06-15T18:23:30.680Z,43.60
2018-06-15T18:25:59.022Z,43.90
2018-06-15T18:28:27.427Z,44.10
2018-06-15T18:30:55.795Z,44.30
2018-06-15T18:33:24.485Z,44.70
2018-06-15T18:35:52.840Z,45.00
2018-06-15T18:40:49.370Z,45.60
2018-06-15T18:43:17.743Z,45.90
2018-06-15T18:45:46.094Z,46.20
2018-06-15T18:48:14.471Z,46.50
2018-06-15T18:50:42.884Z,46.70
2018-06-15T18:53:11.263Z,47.10
2018-06-15T18:55:39.613Z,47.30
2018-06-15T18:58:08.024Z,47.60
2018-06-15T19:00:36.363Z,48.00
2018-06-15T19:03:05.043Z,48.20
2018-06-15T19:05:33.452Z,48.50
2018-06-15T19:08:01.824Z,48.80
2018-06-15T19:10:30.191Z,49.20
2018-06-15T19:12:58.548Z,49.50
2018-06-15T19:20:23.055Z,50.50
2018-06-15T19:22:51.381Z,50.70
2018-06-15T19:25:19.827Z,51.00
2018-06-15T19:37:40.495Z,52.10
2018-06-15T19:42:36.972Z,52.40
2018-06-15T19:45:05.415Z,52.70
2018-06-15T19:47:33.755Z,52.90
2018-06-15T19:50:02.130Z,53.00
2018-06-15T19:52:30.515Z,53.10
2018-06-15T19:54:58.940Z,53.20
2018-06-15T19:59:55.511Z,54.30
2018-06-15T20:02:23.938Z,53.90
2018-06-15T20:04:52.333Z,54.00
2018-06-15T20:07:20.663Z,54.10
2018-06-15T20:09:49.066Z,54.30
2018-06-15T20:12:17.404Z,54.50
2018-06-15T20:14:45.768Z,54.60
2018-06-15T20:17:14.096Z,54.80
2018-06-15T20:19:42.466Z,54.90
2018-06-15T20:22:10.800Z,55.00
2018-06-15T20:24:39.156Z,55.20
2018-06-15T20:27:07.492Z,55.40
2018-06-15T20:29:35.853Z,55.70
2018-06-15T20:32:04.192Z,55.90
2018-06-15T20:34:32.547Z,56.00
2018-06-15T20:37:00.912Z,56.10
2018-06-15T20:39:29.276Z,56.40
2018-06-15T20:41:57.617Z,56.60
2018-06-15T20:44:25.986Z,56.90
2018-06-15T20:46:54.347Z,56.90
2018-06-15T20:49:22.718Z,56.90
2018-06-15T20:51:51.096Z,57.00
2018-06-15T20:54:19.472Z,57.20
2018-06-15T20:56:47.824Z,57.20
2018-06-15T21:01:44.368Z,57.60
2018-06-15T21:04:14.109Z,57.60
2018-06-15T21:06:42.447Z,57.80
2018-06-15T21:09:11.066Z,58.00
2018-06-15T21:11:39.444Z,58.20
2018-06-15T21:14:07.836Z,58.50
2018-06-15T21:16:36.204Z,58.80
2018-06-15T21:19:04.587Z,58.90
2018-06-15T21:21:32.942Z,59.00
2018-06-15T21:24:01.300Z,59.30
2018-06-15T21:26:29.655Z,59.20
2018-06-15T21:28:58.071Z,59.40
2018-06-15T21:31:27.268Z,59.50
2018-06-15T21:33:55.599Z,59.60
2018-06-15T21:36:25.071Z,59.60
2018-06-15T21:43:49.582Z,60.20
2018-06-15T21:46:17.931Z,60.40
2018-06-15T21:48:46.251Z,60.50
2018-06-15T21:53:42.678Z,61.30
2018-06-15T21:56:11.060Z,61.00
2018-06-15T21:58:39.400Z,62.20
2018-06-15T22:01:07.760Z,61.50
2018-06-15T22:03:36.293Z,61.40
2018-06-15T22:06:05.016Z,61.90
2018-06-15T22:08:33.364Z,62.00
2018-06-15T22:11:01.815Z,61.90
2018-06-15T22:13:30.192Z,61.90
2018-06-15T22:15:58.551Z,62.10
2018-06-15T22:18:26.897Z,62.30
2018-06-15T22:20:55.291Z,62.50
2018-06-15T22:25:51.720Z,62.80
2018-06-15T22:28:20.048Z,63.00
2018-06-15T22:30:48.408Z,63.20
2018-06-15T22:33:16.800Z,63.20
2018-06-15T22:35:45.176Z,63.40
2018-06-15T22:38:13.509Z,63.60
2018-06-15T22:40:41.867Z,63.70
2018-06-15T22:43:10.247Z,63.80
2018-06-15T22:45:38.571Z,64.00
2018-06-15T22:50:34.987Z,64.30
2018-06-15T22:53:03.403Z,64.30
2018-06-15T22:55:31.740Z,64.40
2018-06-15T22:58:00.064Z,64.60
2018-06-15T23:02:56.483Z,64.80
2018-06-15T23:05:24.811Z,64.90
2018-06-15T23:07:53.168Z,65.00
2018-06-15T23:12:49.621Z,65.30
2018-06-15T23:17:46.031Z,65.60
2018-06-15T23:20:14.365Z,65.60
2018-06-15T23:22:42.738Z,65.80
2018-06-15T23:25:11.099Z,66.00
2018-06-15T23:27:39.452Z,66.10
2018-06-15T23:30:07.812Z,66.30
2018-06-15T23:32:36.227Z,66.30
2018-06-15T23:35:04.560Z,66.40
2018-06-15T23:37:32.920Z,66.50
2018-06-15T23:40:01.279Z,66.60
2018-06-15T23:42:29.640Z,66.70
2018-06-15T23:44:57.980Z,66.50
2018-06-15T23:47:26.358Z,67.00
2018-06-15T23:49:54.747Z,66.80
2018-06-15T23:52:23.120Z,67.00
2018-06-15T23:54:51.456Z,67.10
2018-06-15T23:57:19.817Z,67.20
2018-06-15T23:59:48.171Z,67.80
